createdAt,value
2018-06-10T06:30:29.144Z,23.00
2018-06-10T06:31:29.729Z,23.40
2018-06-10T06:32:30.304Z,23.60
2018-06-10T06:33:31.601Z,21.70
2018-06-10T06:35:32.488Z,21.70
2018-06-10T06:37:33.371Z,21.70
2018-06-10T06:38:33.954Z,22.50
2018-06-10T06:39:34.522Z,22.10
2018-06-10T06:40:35.126Z,21.90
2018-06-10T06:41:38.581Z,21.40
2018-06-10T06:42:40.087Z,21.40
2018-06-10T06:43:42.777Z,20.50
2018-06-10T06:44:47.500Z,21.10
2018-06-10T06:45:50.781Z,20.70
2018-06-10T06:46:54.818Z,20.50
2018-06-10T06:47:58.719Z,20.50
2018-06-10T06:49:00.540Z,20.20
2018-06-10T06:51:01.800Z,20.20
2018-06-10T06:52:07.003Z,20.00
2018-06-10T06:53:12.546Z,20.10
2018-06-10T06:54:15.894Z,19.80
2018-06-10T06:55:17.690Z,19.50
2018-06-10T06:56:19.515Z,19.60
2018-06-10T06:57:23.038Z,20.50
2018-06-10T06:58:28.305Z,20.50
2018-06-10T06:59:28.910Z,19.30
2018-06-10T07:00:30.092Z,19.40
2018-06-10T07:01:35.570Z,19.20
2018-06-10T07:02:37.727Z,19.00
2018-06-10T07:03:45.732Z,18.70
2018-06-10T07:04:50.198Z,19.70
2018-06-10T07:05:51.467Z,19.90
2018-06-10T07:06:54.526Z,18.70
2018-06-10T07:07:55.286Z,19.00
2018-06-10T07:08:56.589Z,19.20
2018-06-10T07:10:02.411Z,18.40
2018-06-10T07:11:03.242Z,18.40
2018-06-10T07:12:08.479Z,18.40
2018-06-10T07:13:11.552Z,18.40
2018-06-10T07:14:13.568Z,18.50
2018-06-10T07:15:14.292Z,18.30
2018-06-10T07:16:14.891Z,18.40
2018-06-10T07:17:15.502Z,18.10
2018-06-10T07:18:17.107Z,19.80
2018-06-10T07:19:20.177Z,20.00
2018-06-10T07:20:22.523Z,18.80
2018-06-10T07:21:25.530Z,20.30
2018-06-10T07:23:26.530Z,18.80
2018-06-10T07:24:28.993Z,17.40
2018-06-10T07:25:32.887Z,18.20
2018-06-10T07:26:34.872Z,18.30
2018-06-10T07:27:35.773Z,19.30
2018-06-10T07:28:36.380Z,19.30
2018-06-10T07:29:36.992Z,21.30
2018-06-10T07:30:37.627Z,19.20
2018-06-10T07:31:38.624Z,18.80
2018-06-10T07:32:40.048Z,18.20
2018-06-10T07:33:40.619Z,18.50
2018-06-10T07:34:41.188Z,18.60
2018-06-10T07:35:41.872Z,17.30
2018-06-10T07:36:42.477Z,19.30
2018-06-10T07:37:43.110Z,17.50
2018-06-10T07:38:43.710Z,17.70
2018-06-10T07:40:44.557Z,17.80
2018-06-10T07:41:45.174Z,16.70
2018-06-10T07:42:45.750Z,17.10
2018-06-10T07:43:46.365Z,19.40
2018-06-10T07:44:48.218Z,17.10
2018-06-10T07:46:01.740Z,17.20
2018-06-10T07:47:03.496Z,17.50
2018-06-10T07:48:04.129Z,17.30
2018-06-10T07:49:05.434Z,18.50
2018-06-10T07:50:07.196Z,16.60
2018-06-10T07:51:10.132Z,16.10
2018-06-10T07:52:12.220Z,16.60
2018-06-10T07:53:19.822Z,17.50
2018-06-10T07:54:28.129Z,17.70
2018-06-10T07:55:36.268Z,17.00
2018-06-10T07:56:37.096Z,17.80
2018-06-10T07:57:37.925Z,17.60
2018-06-10T07:58:38.527Z,17.10
2018-06-10T08:00:39.461Z,17.10
2018-06-10T08:01:40.058Z,16.80
2018-06-10T08:02:40.647Z,17.50
2018-06-10T08:03:41.305Z,16.60
2018-06-10T08:04:41.910Z,17.70
2018-06-10T08:05:43.053Z,17.10
2018-06-10T08:06:43.628Z,17.00
2018-06-10T08:07:44.268Z,16.50
2018-06-10T08:08:44.853Z,16.40
2018-06-10T08:09:45.472Z,15.70
2018-06-10T08:11:46.338Z,17.20
2018-06-10T08:12:46.944Z,20.30
2018-06-10T08:13:47.564Z,19.70
2018-06-10T08:14:48.296Z,20.20
2018-06-10T08:15:49.718Z,18.20
2018-06-10T08:16:50.362Z,17.10
2018-06-10T08:17:50.990Z,19.50
2018-06-10T08:18:51.578Z,19.00
2018-06-10T08:19:52.207Z,18.80
2018-06-10T08:21:53.108Z,17.60
2018-06-10T08:22:53.697Z,17.80
2018-06-10T08:23:54.365Z,18.60
2018-06-10T08:24:55.019Z,20.40
2018-06-10T08:25:55.610Z,18.90
2018-06-10T08:26:56.207Z,18.30
2018-06-10T08:27:56.821Z,20.00
2018-06-10T08:28:57.441Z,18.70
2018-06-10T08:29:58.195Z,18.60
2018-06-10T08:30:58.757Z,18.30
2018-06-10T08:31:59.353Z,18.30
2018-06-10T08:33:00.021Z,20.20
2018-06-10T08:34:00.680Z,18.30
2018-06-10T08:35:01.249Z,18.20
2018-06-10T08:36:01.834Z,18.30
2018-06-10T08:37:02.420Z,19.00
2018-06-10T08:38:03.094Z,19.60
2018-06-10T08:39:03.699Z,17.50
2018-06-10T08:40:04.526Z,19.00
2018-06-10T08:41:05.147Z,19.30
2018-06-10T08:42:05.719Z,19.20
2018-06-10T08:43:06.370Z,18.40
2018-06-10T08:44:07.010Z,18.40
2018-06-10T08:45:07.626Z,19.70
2018-06-10T08:46:08.218Z,18.50
2018-06-10T08:47:08.831Z,19.30
2018-06-10T08:48:09.457Z,18.30
2018-06-10T08:49:10.067Z,18.00
2018-06-10T08:50:10.660Z,18.80
2018-06-10T08:52:11.564Z,17.60
2018-06-10T08:53:12.230Z,18.20
2018-06-10T08:54:12.885Z,20.10
2018-06-10T08:55:13.680Z,19.20
2018-06-10T08:56:14.307Z,18.30
2018-06-10T08:57:14.908Z,17.90
2018-06-10T08:58:15.526Z,18.60
2018-06-10T08:59:16.117Z,19.70
2018-06-10T09:00:16.840Z,18.30
2018-06-10T09:01:17.493Z,18.40
2018-06-10T09:02:18.095Z,19.40
2018-06-10T09:03:18.674Z,20.10
2018-06-10T09:04:19.268Z,18.10
2018-06-10T09:05:19.872Z,18.40
2018-06-10T09:06:20.476Z,20.00
2018-06-10T09:07:21.084Z,19.30
2018-06-10T09:08:21.764Z,18.80
2018-06-10T09:09:27.313Z,18.40
2018-06-10T09:10:28.120Z,18.60
2018-06-10T09:11:28.728Z,19.50
2018-06-10T09:12:29.424Z,19.60
2018-06-10T09:14:32.812Z,18.70
2018-06-10T09:15:33.682Z,19.50
2018-06-10T09:16:34.283Z,19.40
2018-06-10T09:18:35.194Z,18.20
2018-06-10T09:19:35.843Z,18.70
2018-06-10T09:20:36.489Z,18.10
2018-06-10T09:21:37.154Z,18.50
2018-06-10T09:22:37.915Z,17.70
2018-06-10T09:23:50.031Z,17.90
2018-06-10T09:24:54.375Z,16.30
2018-06-10T09:25:58.195Z,16.30
2018-06-10T09:27:01.633Z,16.30
2018-06-10T09:28:02.500Z,16.30
2018-06-10T09:29:03.142Z,16.20
2018-06-10T09:30:03.867Z,16.60
2018-06-10T09:31:04.476Z,18.50
2018-06-10T09:32:05.066Z,16.70
2018-06-10T09:33:05.711Z,16.90
2018-06-10T09:34:21.223Z,15.30
2018-06-10T09:35:22.174Z,17.90
2018-06-10T09:36:24.157Z,17.60
2018-06-10T09:37:25.177Z,16.40
2018-06-10T09:38:25.823Z,16.70
2018-06-10T09:39:26.435Z,16.60
2018-06-10T09:40:27.061Z,16.20
2018-06-10T09:41:27.720Z,17.70
2018-06-10T09:42:28.344Z,17.00
2018-06-10T09:43:28.908Z,17.50
2018-06-10T09:44:29.517Z,17.20
2018-06-10T09:45:30.842Z,17.50
2018-06-10T09:46:31.535Z,16.30
2018-06-10T09:47:32.117Z,16.00
2018-06-10T09:48:34.155Z,16.40
2018-06-10T09:49:37.270Z,18.20
2018-06-10T09:50:40.113Z,18.10
2018-06-10T09:51:44.969Z,16.80
2018-06-10T09:52:47.392Z,16.80
2018-06-10T09:53:53.979Z,17.80
2018-06-10T09:54:55.981Z,16.60
2018-06-10T09:56:58.926Z,16.60
2018-06-10T09:58:59.945Z,16.50
2018-06-10T10:00:00.530Z,16.70
2018-06-10T10:01:01.184Z,15.90
2018-06-10T10:02:04.384Z,16.60
2018-06-10T10:03:06.032Z,16.60
2018-06-10T10:04:10.322Z,19.20
2018-06-10T10:05:17.813Z,19.20
2018-06-10T10:06:22.601Z,15.80
2018-06-10T10:07:28.606Z,15.80
2018-06-10T10:08:31.434Z,14.90
2018-06-10T10:09:36.117Z,14.20
2018-06-10T10:10:36.844Z,14.50
2018-06-10T10:11:37.470Z,14.40
2018-06-10T10:12:38.082Z,12.80
2018-06-10T10:13:39.016Z,14.50
2018-06-10T10:14:39.837Z,13.70
2018-06-10T10:15:40.318Z,13.20
2018-06-10T10:16:40.902Z,14.10
2018-06-10T10:17:41.452Z,13.60
2018-06-10T10:18:42.165Z,13.70
2018-06-10T10:19:42.751Z,13.80
2018-06-10T10:20:43.330Z,14.40
2018-06-10T10:21:43.983Z,13.90
2018-06-10T10:22:44.609Z,13.60
2018-06-10T10:23:45.265Z,13.50
2018-06-10T10:24:45.825Z,12.90
2018-06-10T10:25:46.422Z,13.30
2018-06-10T10:26:47.001Z,12.50
2018-06-10T10:27:47.616Z,11.60
2018-06-10T10:28:50.499Z,11.60
2018-06-10T10:29:51.248Z,11.60
2018-06-10T10:30:51.875Z,10.50
2018-06-10T10:31:52.529Z,12.40
2018-06-10T10:32:53.146Z,10.80
2018-06-10T10:33:53.766Z,11.30
2018-06-10T10:34:54.365Z,11.20
2018-06-10T10:35:54.985Z,10.80
2018-06-10T10:36:57.952Z,11.00
2018-06-10T10:37:58.634Z,11.00
2018-06-10T10:38:59.223Z,11.70
2018-06-10T10:39:59.883Z,11.30
2018-06-10T10:41:00.456Z,10.80
2018-06-10T10:42:01.107Z,11.50
2018-06-10T10:43:01.736Z,10.90
2018-06-10T10:44:03.351Z,9.90
2018-06-10T10:45:03.991Z,10.20
2018-06-10T10:46:07.320Z,10.00
2018-06-10T10:47:09.604Z,9.30
2018-06-10T10:48:10.992Z,9.40
2018-06-10T10:49:11.707Z,9.60
2018-06-10T10:50:12.300Z,9.70
2018-06-10T10:51:14.480Z,9.30
2018-06-10T10:52:16.886Z,9.50
2018-06-10T10:53:19.321Z,9.20
2018-06-10T10:54:20.081Z,9.40
2018-06-10T10:55:20.665Z,8.90
2018-06-10T10:56:21.275Z,8.60
2018-06-10T10:58:22.114Z,8.80
2018-06-10T10:59:22.708Z,9.70
2018-06-10T11:00:23.439Z,9.00
2018-06-10T11:01:24.029Z,9.30
2018-06-10T11:02:24.617Z,9.20
2018-06-10T11:03:25.234Z,9.20
2018-06-10T11:04:25.819Z,8.80
2018-06-10T11:05:31.687Z,8.60
2018-06-10T11:06:34.329Z,9.10
2018-06-10T11:07:38.167Z,10.00
2018-06-10T11:08:41.343Z,10.00
2018-06-10T11:09:47.400Z,8.30
2018-06-10T11:10:48.084Z,8.40
2018-06-10T11:11:48.675Z,8.70
2018-06-10T11:12:49.246Z,8.70
2018-06-10T11:13:49.855Z,10.30
2018-06-10T11:14:50.495Z,10.70
2018-06-10T11:16:52.382Z,9.40
2018-06-10T11:18:54.783Z,9.40
2018-06-10T11:19:55.355Z,9.40
2018-06-10T11:20:55.944Z,9.20
2018-06-10T11:21:56.542Z,9.50
2018-06-10T11:22:57.148Z,9.10
2018-06-10T11:23:58.147Z,9.00
2018-06-10T11:24:58.710Z,10.00
2018-06-10T11:25:59.293Z,9.10
2018-06-10T11:26:59.995Z,9.30
2018-06-10T11:28:00.630Z,8.90
2018-06-10T11:29:01.271Z,9.60
2018-06-10T11:30:01.878Z,8.90
2018-06-10T11:31:02.472Z,8.80
2018-06-10T11:32:03.073Z,9.20
2018-06-10T11:33:03.750Z,8.80
2018-06-10T11:34:04.518Z,8.50
2018-06-10T11:35:05.115Z,9.40
2018-06-10T11:36:05.677Z,8.50
2018-06-10T11:37:06.503Z,9.00
2018-06-10T11:38:07.098Z,8.60
2018-06-10T11:39:07.728Z,8.50
2018-06-10T11:40:08.330Z,8.20
2018-06-10T11:41:08.902Z,8.60
2018-06-10T11:42:09.505Z,8.30
2018-06-10T11:43:10.081Z,8.50
2018-06-10T11:44:10.730Z,8.40
2018-06-10T11:45:11.315Z,8.30
2018-06-10T11:47:12.140Z,8.50
2018-06-10T11:48:12.721Z,7.90
2018-06-10T11:49:13.296Z,9.00
2018-06-10T11:50:13.878Z,9.40
2018-06-10T11:51:14.434Z,8.60
2018-06-10T11:52:25.451Z,8.40
2018-06-10T11:53:26.065Z,8.40
2018-06-10T11:54:26.692Z,8.00
2018-06-10T11:55:27.307Z,7.90
2018-06-10T11:56:28.028Z,7.60
2018-06-10T11:57:28.626Z,7.80
2018-06-10T11:58:29.204Z,7.60
2018-06-10T11:59:29.807Z,8.50
2018-06-10T12:00:30.420Z,7.70
2018-06-10T12:02:31.280Z,8.30
2018-06-10T12:03:31.886Z,8.60
2018-06-10T12:04:32.515Z,8.20
2018-06-10T12:05:33.121Z,9.20
2018-06-10T12:06:33.707Z,8.10
2018-06-10T12:07:34.275Z,7.80
2018-06-10T12:08:34.892Z,7.80
2018-06-10T12:09:35.483Z,8.10
2018-06-10T12:10:36.758Z,7.80
2018-06-10T12:11:37.361Z,8.30
2018-06-10T12:12:37.972Z,7.80
2018-06-10T12:13:38.538Z,8.50
2018-06-10T12:14:39.196Z,7.90
2018-06-10T12:15:39.759Z,8.30
2018-06-10T12:16:40.395Z,8.10
2018-06-10T12:17:41.019Z,8.10
2018-06-10T12:18:41.589Z,7.80
2018-06-10T12:19:42.192Z,8.00
2018-06-10T12:20:42.823Z,7.30
2018-06-10T12:21:43.394Z,7.80
2018-06-10T12:22:44.057Z,7.20
2018-06-10T12:23:44.720Z,7.20
2018-06-10T12:24:45.334Z,7.60
2018-06-10T12:25:45.938Z,7.50
2018-06-10T12:26:46.519Z,7.60
2018-06-10T12:27:47.097Z,7.10
2018-06-10T12:28:47.729Z,8.10
2018-06-10T12:29:48.309Z,7.00
2018-06-10T12:30:48.867Z,7.20
2018-06-10T12:31:49.496Z,7.00
2018-06-10T12:32:50.090Z,7.10
2018-06-10T12:33:50.771Z,6.80
2018-06-10T12:34:51.342Z,7.50
2018-06-10T12:35:52.631Z,6.90
2018-06-10T12:37:53.556Z,6.90
2018-06-10T12:38:54.120Z,6.80
2018-06-10T12:39:54.712Z,6.90
2018-06-10T12:40:55.273Z,6.90
2018-06-10T12:41:55.881Z,6.60
2018-06-10T12:42:56.485Z,6.60
2018-06-10T12:43:57.208Z,6.10
2018-06-10T12:44:57.861Z,6.80
2018-06-10T12:45:58.464Z,6.60
2018-06-10T12:46:59.032Z,6.10
2018-06-10T12:47:59.612Z,6.40
2018-06-10T12:49:00.230Z,6.50
2018-06-10T12:50:01.469Z,6.60
2018-06-10T12:51:02.077Z,6.10
2018-06-10T12:52:02.687Z,5.60
2018-06-10T12:53:03.259Z,6.00
2018-06-10T12:54:03.889Z,6.50
2018-06-10T12:55:04.472Z,6.60
2018-06-10T12:56:05.061Z,6.50
2018-06-10T12:57:05.704Z,6.20
2018-06-10T12:58:06.305Z,6.30
2018-06-10T13:00:07.253Z,6.00
2018-06-10T13:01:07.895Z,5.70
2018-06-10T13:02:08.476Z,6.30
2018-06-10T13:03:09.067Z,6.10
2018-06-10T13:04:09.664Z,5.90
2018-06-10T13:05:10.281Z,6.30
2018-06-10T13:06:10.990Z,5.70
2018-06-10T13:07:11.666Z,6.20
2018-06-10T13:08:12.376Z,6.10
2018-06-10T13:09:12.961Z,5.90
2018-06-10T13:10:13.546Z,6.10
2018-06-10T13:11:14.136Z,6.30
2018-06-10T13:12:14.774Z,6.20
2018-06-10T13:13:15.447Z,5.90
2018-06-10T13:14:16.044Z,5.80
2018-06-10T13:16:16.904Z,5.60
2018-06-10T13:17:17.664Z,6.10
2018-06-10T13:18:18.342Z,5.80
2018-06-10T13:19:18.913Z,5.80
2018-06-10T13:20:20.136Z,6.20
2018-06-10T13:21:20.742Z,5.90
2018-06-10T13:22:21.386Z,6.00
2018-06-10T13:23:21.969Z,5.90
2018-06-10T13:24:22.594Z,5.90
2018-06-10T13:25:23.201Z,6.00
2018-06-10T13:26:23.777Z,5.80
2018-06-10T13:27:24.390Z,6.00
2018-06-10T13:28:24.948Z,5.80
2018-06-10T13:29:25.599Z,5.50
2018-06-10T13:30:26.190Z,5.70
2018-06-10T13:31:26.788Z,5.40
2018-06-10T13:32:27.360Z,5.50
2018-06-10T13:33:27.970Z,5.80
2018-06-10T13:34:28.589Z,5.50
2018-06-10T13:35:29.194Z,5.40
2018-06-10T13:36:29.816Z,5.80
2018-06-10T13:37:30.376Z,5.80
2018-06-10T13:38:31.029Z,5.80
2018-06-10T13:39:31.595Z,5.90
2018-06-10T13:40:32.271Z,5.80
2018-06-10T13:41:32.943Z,5.70
2018-06-10T13:42:33.530Z,5.30
2018-06-10T13:44:34.389Z,5.40
2018-06-10T13:45:35.002Z,5.70
2018-06-10T13:46:35.667Z,6.40
2018-06-10T13:48:36.536Z,5.70
2018-06-10T13:49:37.247Z,5.70
2018-06-10T13:50:37.803Z,5.80
2018-06-10T13:51:38.450Z,5.30
2018-06-10T13:52:39.030Z,5.20
2018-06-10T13:53:39.629Z,5.50
2018-06-10T13:54:40.222Z,5.90
2018-06-10T13:55:40.800Z,5.60
2018-06-10T13:56:41.410Z,5.90
2018-06-10T13:57:41.990Z,6.00
2018-06-10T13:58:42.572Z,5.70
2018-06-10T13:59:43.642Z,6.00
2018-06-10T14:00:44.255Z,5.70
2018-06-10T14:01:44.916Z,5.90
2018-06-10T14:02:45.576Z,5.90
2018-06-10T14:03:46.135Z,6.20
2018-06-10T14:04:46.741Z,5.60
2018-06-10T14:05:47.341Z,5.50
2018-06-10T14:06:48.012Z,5.90
2018-06-10T14:07:48.566Z,5.80
2018-06-10T14:08:49.165Z,5.70
2018-06-10T14:09:49.733Z,5.50
2018-06-10T14:10:50.301Z,6.10
2018-06-10T14:11:50.908Z,5.70
2018-06-10T14:12:51.491Z,5.50
2018-06-10T14:13:52.308Z,5.60
2018-06-10T14:14:52.918Z,5.90
2018-06-10T14:15:53.493Z,5.80
2018-06-10T14:16:54.117Z,5.80
2018-06-10T14:17:54.722Z,5.80
2018-06-10T14:18:55.324Z,5.30
2018-06-10T14:19:55.908Z,5.70
2018-06-10T14:20:56.514Z,5.40
2018-06-10T14:21:58.165Z,5.70
2018-06-10T14:22:58.808Z,5.80
2018-06-10T14:23:59.555Z,5.70
2018-06-10T14:25:00.169Z,5.80
2018-06-10T14:26:00.904Z,5.90
2018-06-10T14:27:01.520Z,5.50
2018-06-10T14:28:02.165Z,6.00
2018-06-10T14:29:02.867Z,5.80
2018-06-10T14:30:03.494Z,5.50
2018-06-10T14:31:04.085Z,5.80
2018-06-10T14:32:04.675Z,6.10
2018-06-10T14:33:05.363Z,6.00
2018-06-10T14:34:05.996Z,6.00
2018-06-10T14:35:06.585Z,5.80
2018-06-10T14:36:07.178Z,5.80
2018-06-10T14:37:07.775Z,5.60
2018-06-10T14:38:08.379Z,5.70
2018-06-10T14:39:09.046Z,6.30
2018-06-10T14:40:09.675Z,5.70
2018-06-10T14:41:10.358Z,6.10
2018-06-10T14:42:10.948Z,6.00
2018-06-10T14:43:11.594Z,6.20
2018-06-10T14:44:12.205Z,6.20
2018-06-10T14:45:12.766Z,6.80
2018-06-10T14:47:13.615Z,6.50
2018-06-10T14:48:14.219Z,6.70
2018-06-10T14:49:14.797Z,6.70
2018-06-10T14:50:15.380Z,6.50
2018-06-10T14:51:15.957Z,6.30
2018-06-10T14:52:16.579Z,7.10
2018-06-10T14:53:17.205Z,6.10
2018-06-10T14:54:17.837Z,6.40
2018-06-10T14:55:18.429Z,6.60
2018-06-10T14:56:19.022Z,6.20
2018-06-10T14:57:19.590Z,6.70
2018-06-10T14:58:20.145Z,6.30
2018-06-10T14:59:20.697Z,6.30
2018-06-10T15:00:21.315Z,5.70
2018-06-10T15:01:21.979Z,6.00
2018-06-10T15:02:22.573Z,6.60
2018-06-10T15:03:23.210Z,6.50
2018-06-10T15:04:23.780Z,6.80
2018-06-10T15:05:24.346Z,6.60
2018-06-10T15:06:24.973Z,6.50
2018-06-10T15:07:25.554Z,7.10
2018-06-10T15:08:26.158Z,6.50
2018-06-10T15:10:27.068Z,6.20
2018-06-10T15:11:28.381Z,6.30
2018-06-10T15:13:29.260Z,5.90
2018-06-10T15:14:29.856Z,6.00
2018-06-10T15:16:30.689Z,6.00
2018-06-10T15:17:31.266Z,6.30
2018-06-10T15:18:31.881Z,6.10
2018-06-10T15:20:32.752Z,6.50
2018-06-10T15:21:33.324Z,6.20
2018-06-10T15:22:33.910Z,6.40
2018-06-10T15:23:34.523Z,7.90
2018-06-10T15:24:35.179Z,6.20
2018-06-10T15:25:35.865Z,5.60
2018-06-10T15:26:36.513Z,6.10
2018-06-10T15:27:37.117Z,6.20
2018-06-10T15:28:37.735Z,6.30
2018-06-10T15:29:38.350Z,6.30
2018-06-10T15:30:39.004Z,5.90
2018-06-10T15:31:39.598Z,6.00
2018-06-10T15:32:40.193Z,5.90
2018-06-10T15:33:40.758Z,5.80
2018-06-10T15:34:41.403Z,6.50
2018-06-10T15:35:41.994Z,5.60
2018-06-10T15:36:42.570Z,6.30
2018-06-10T15:37:43.199Z,6.30
2018-06-10T15:38:43.771Z,6.30
2018-06-10T15:39:44.388Z,6.20
2018-06-10T15:40:45.615Z,6.20
2018-06-10T15:41:46.220Z,6.30
2018-06-10T15:42:46.847Z,6.20
2018-06-10T15:43:47.493Z,6.80
2018-06-10T15:44:51.011Z,6.10
2018-06-10T15:45:51.584Z,6.20
2018-06-10T15:46:56.118Z,6.00
2018-06-10T15:48:03.867Z,6.00
2018-06-10T15:49:04.546Z,6.10
2018-06-10T15:50:05.277Z,6.20
2018-06-10T15:51:05.927Z,5.70
2018-06-10T15:52:06.574Z,5.80
2018-06-10T15:53:07.172Z,5.90
2018-06-10T15:54:07.752Z,6.10
2018-06-10T15:55:08.332Z,5.70
2018-06-10T15:56:08.922Z,6.00
2018-06-10T15:57:09.532Z,6.00
2018-06-10T15:59:10.387Z,6.10
2018-06-10T16:01:11.238Z,5.80
2018-06-10T16:03:12.135Z,6.10
2018-06-10T16:04:12.697Z,6.70
2018-06-10T16:05:13.309Z,6.20
2018-06-10T16:07:14.238Z,5.90
2018-06-10T16:08:14.840Z,5.50
2018-06-10T16:09:21.251Z,5.90
2018-06-10T16:10:21.907Z,6.20
2018-06-10T16:11:22.489Z,5.70
2018-06-10T16:12:24.809Z,5.50
2018-06-10T16:13:25.518Z,6.20
2018-06-10T16:14:26.116Z,5.80
2018-06-10T16:15:26.771Z,6.00
2018-06-10T16:16:27.395Z,5.80
2018-06-10T16:17:28.173Z,6.20
2018-06-10T16:18:28.772Z,5.80
2018-06-10T16:19:29.444Z,5.50
2018-06-10T16:20:30.045Z,5.90
2018-06-10T16:21:30.683Z,6.00
2018-06-10T16:22:31.328Z,6.10
2018-06-10T16:23:31.903Z,5.90
2018-06-10T16:24:32.614Z,5.90
2018-06-10T16:25:33.184Z,5.70
2018-06-10T16:26:33.781Z,6.20
2018-06-10T16:27:34.368Z,6.60
2018-06-10T16:28:34.997Z,6.20
2018-06-10T16:29:35.608Z,6.00
2018-06-10T16:30:36.486Z,5.70
2018-06-10T16:31:37.077Z,6.10
2018-06-10T16:32:37.686Z,5.80
2018-06-10T16:33:38.335Z,5.70
2018-06-10T16:34:38.947Z,6.30
2018-06-10T16:35:39.550Z,5.50
2018-06-10T16:36:40.141Z,6.00
2018-06-10T16:37:40.729Z,5.60
2018-06-10T16:38:41.315Z,5.60
2018-06-10T16:39:41.925Z,6.00
2018-06-10T16:40:42.543Z,5.60
2018-06-10T16:41:43.144Z,5.80
2018-06-10T16:42:43.786Z,5.80
2018-06-10T16:43:44.370Z,6.00
2018-06-10T16:44:44.966Z,6.10
2018-06-10T16:45:45.520Z,6.00
2018-06-10T16:46:46.105Z,6.20
2018-06-10T16:47:46.770Z,6.20
2018-06-10T16:48:47.356Z,5.50
2018-06-10T16:49:49.016Z,5.00
2018-06-10T16:50:49.606Z,5.50
2018-06-10T16:51:50.231Z,4.40
2018-06-10T16:52:50.948Z,4.40
2018-06-10T16:53:51.550Z,5.10
2018-06-10T16:54:52.170Z,4.40
2018-06-10T16:55:53.471Z,4.50
2018-06-10T16:56:54.132Z,4.50
2018-06-10T16:57:54.703Z,10.90
2018-06-10T16:59:00.265Z,4.40
2018-06-10T17:00:00.896Z,3.80
2018-06-10T17:01:01.547Z,3.40
2018-06-10T17:02:02.124Z,4.30
2018-06-10T17:03:02.773Z,3.90
2018-06-10T17:04:03.408Z,3.90
2018-06-10T17:05:04.152Z,4.00
2018-06-10T17:06:04.815Z,3.70
2018-06-10T17:07:05.464Z,3.40
2018-06-10T17:08:06.040Z,5.90
2018-06-10T17:09:06.719Z,3.90
2018-06-10T17:10:07.319Z,3.50
2018-06-10T17:11:07.893Z,3.60
2018-06-10T17:12:08.481Z,3.40
2018-06-10T17:13:09.978Z,3.60
2018-06-10T17:14:10.666Z,3.80
2018-06-10T17:15:11.358Z,3.70
2018-06-10T17:16:11.988Z,3.70
2018-06-10T17:17:12.598Z,3.40
2018-06-10T17:18:13.203Z,4.70
2018-06-10T17:19:14.379Z,3.60
2018-06-10T17:20:14.976Z,3.80
2018-06-10T17:21:15.557Z,3.60
2018-06-10T17:22:16.205Z,3.50
2018-06-10T17:23:16.800Z,3.50
2018-06-10T17:24:17.450Z,3.40
2018-06-10T17:25:18.013Z,4.10
2018-06-10T17:26:18.617Z,3.70
2018-06-10T17:27:19.197Z,3.50
2018-06-10T17:29:20.066Z,3.70
2018-06-10T17:30:20.732Z,3.90
